Webcam & Weather

This webcam image will automatically refresh every 15 seconds.


Saturday 28th May 2016  The webcam is now working but the date and time are wrong.  It will be corrected as soon as possible.
METAR and TAF for EGLL Heathrow (12 Nautical Miles East of White Waltham)

METAR FOR EGLL (Issued: Mon, May 30th 2016 8:20 AM UTC):
EGLL 300820Z AUTO 01009KT 340V050 9999 OVC012 13/10 Q1016 TEMPO BKN015

TAF FOR EGLL (Issued: Mon, May 30th 2016 6:15 AM UTC):
TAF TAF EGLL 300501Z 3006/3112 36012KT 9999 BKN012 PROB30 TEMPO 3006/3008 8000 BKN009 BECMG 3008/3011 SCT025 BECMG 3010/3013 36016G26KT TEMPO 3021/3024 BKN014 BECMG 3100/3103 BKN010 TEMPO 3104/3108 6000 RA BKN007 PROB30 TEMPO 3105/3108 4500 +SHRA TEMPO 3108/3112 5000 SHRA BKN008 BECMG 3110/3112 SCT012

Play 24 hour timelapse | Play 30 day timelapse

Comments are closed.